sensor_id;sensor_type;location;lat;lon;timestamp;pressure;altitude;pressure_sealevel;temperature;humidity
62708;BME280;48769;51.624;5.886;2023-04-06T00:00:43;101649.50;;;4.92;76.30
62708;BME280;48769;51.624;5.886;2023-04-06T00:03:08;101646.06;;;4.88;76.51
62708;BME280;48769;51.624;5.886;2023-04-06T00:05:34;101643.47;;;4.85;76.33
62708;BME280;48769;51.624;5.886;2023-04-06T00:07:59;101644.41;;;4.81;76.93
62708;BME280;48769;51.624;5.886;2023-04-06T00:10:25;101641.81;;;4.80;76.40
62708;BME280;48769;51.624;5.886;2023-04-06T00:12:51;101640.09;;;4.77;76.69
62708;BME280;48769;51.624;5.886;2023-04-06T00:15:16;101640.13;;;4.74;76.85
62708;BME280;48769;51.624;5.886;2023-04-06T00:17:42;101635.88;;;4.67;77.13
62708;BME280;48769;51.624;5.886;2023-04-06T00:20:07;101636.78;;;4.64;77.67
62708;BME280;48769;51.624;5.886;2023-04-06T00:22:33;101639.56;;;4.54;77.32
62708;BME280;48769;51.624;5.886;2023-04-06T00:24:59;101632.84;;;4.34;78.68
62708;BME280;48769;51.624;5.886;2023-04-06T00:27:24;101631.91;;;4.40;79.20
62708;BME280;48769;51.624;5.886;2023-04-06T00:29:50;101628.41;;;4.42;79.33
62708;BME280;48769;51.624;5.886;2023-04-06T00:32:15;101628.41;;;4.42;79.11
62708;BME280;48769;51.624;5.886;2023-04-06T00:34:41;101624.03;;;4.41;78.87
62708;BME280;48769;51.624;5.886;2023-04-06T00:37:06;101616.25;;;4.37;78.70
62708;BME280;48769;51.624;5.886;2023-04-06T00:39:32;101615.44;;;4.33;78.94
62708;BME280;48769;51.624;5.886;2023-04-06T00:41:57;101617.16;;;4.34;78.61
62708;BME280;48769;51.624;5.886;2023-04-06T00:44:23;101612.84;;;4.30;78.47
62708;BME280;48769;51.624;5.886;2023-04-06T00:46:48;101611.13;;;4.28;78.82
62708;BME280;48769;51.624;5.886;2023-04-06T00:49:14;101612.94;;;4.24;78.62
62708;BME280;48769;51.624;5.886;2023-04-06T00:51:39;101608.59;;;4.23;78.98
62708;BME280;48769;51.624;5.886;2023-04-06T00:54:04;101607.75;;;4.21;79.29
62708;BME280;48769;51.624;5.886;2023-04-06T00:56:30;101600.84;;;4.15;78.92
62708;BME280;48769;51.624;5.886;2023-04-06T00:58:56;101599.19;;;4.08;79.53
62708;BME280;48769;51.624;5.886;2023-04-06T01:01:23;101603.59;;;4.05;80.33
62708;BME280;48769;51.624;5.886;2023-04-06T01:03:48;101601.09;;;3.95;80.33
62708;BME280;48769;51.624;5.886;2023-04-06T01:06:15;101600.28;;;3.90;80.72
62708;BME280;48769;51.624;5.886;2023-04-06T01:08:40;101593.31;;;3.91;80.92
62708;BME280;48769;51.624;5.886;2023-04-06T01:11:05;101597.69;;;3.90;80.48
62708;BME280;48769;51.624;5.886;2023-04-06T01:13:31;101590.69;;;3.91;80.68
62708;BME280;48769;51.624;5.886;2023-04-06T01:15:56;101589.88;;;3.87;80.56
62708;BME280;48769;51.624;5.886;2023-04-06T01:18:26;101586.44;;;3.82;80.96
62708;BME280;48769;51.624;5.886;2023-04-06T01:20:52;101587.31;;;3.80;81.17
62708;BME280;48769;51.624;5.886;2023-04-06T01:23:17;101586.50;;;3.78;81.20
62708;BME280;48769;51.624;5.886;2023-04-06T01:25:42;101584.75;;;3.78;81.45
62708;BME280;48769;51.624;5.886;2023-04-06T01:28:08;101577.78;;;3.77;81.63
62708;BME280;48769;51.624;5.886;2023-04-06T01:30:33;101583.88;;;3.76;81.97
62708;BME280;48769;51.624;5.886;2023-04-06T01:32:59;101583.91;;;3.73;82.38
62708;BME280;48769;51.624;5.886;2023-04-06T01:35:26;101583.06;;;3.74;82.33
62708;BME280;48769;51.624;5.886;2023-04-06T01:37:52;101574.34;;;3.72;82.67
62708;BME280;48769;51.624;5.886;2023-04-06T01:40:17;101570.91;;;3.67;83.13
62708;BME280;48769;51.624;5.886;2023-04-06T01:42:42;101566.63;;;3.64;82.91
62708;BME280;48769;51.624;5.886;2023-04-06T01:45:08;101563.13;;;3.64;82.89
62708;BME280;48769;51.624;5.886;2023-04-06T01:47:34;101564.00;;;3.63;83.04
62708;BME280;48769;51.624;5.886;2023-04-06T01:49:59;101558.78;;;3.63;82.96
62708;BME280;48769;51.624;5.886;2023-04-06T01:52:24;101558.81;;;3.60;83.27
62708;BME280;48769;51.624;5.886;2023-04-06T01:54:50;101557.13;;;3.56;83.08
62708;BME280;48769;51.624;5.886;2023-04-06T01:57:15;101553.66;;;3.54;83.32
62708;BME280;48769;51.624;5.886;2023-04-06T01:59:40;101548.44;;;3.54;83.36
62708;BME280;48769;51.624;5.886;2023-04-06T02:02:06;101551.97;;;3.51;83.22
62708;BME280;48769;51.624;5.886;2023-04-06T02:04:31;101550.22;;;3.51;83.70
62708;BME280;48769;51.624;5.886;2023-04-06T02:06:57;101541.50;;;3.49;82.97
62708;BME280;48769;51.624;5.886;2023-04-06T02:09:22;101542.47;;;3.42;83.04
62708;BME280;48769;51.624;5.886;2023-04-06T02:11:47;101537.31;;;3.36;82.96
62708;BME280;48769;51.624;5.886;2023-04-06T02:14:13;101534.72;;;3.33;83.79
62708;BME280;48769;51.624;5.886;2023-04-06T02:16:38;101529.53;;;3.30;84.02
62708;BME280;48769;51.624;5.886;2023-04-06T02:19:03;101535.75;;;3.18;84.47
62708;BME280;48769;51.624;5.886;2023-04-06T02:21:29;101536.66;;;3.16;85.20
62708;BME280;48769;51.624;5.886;2023-04-06T02:23:54;101531.38;;;3.22;85.77
62708;BME280;48769;51.624;5.886;2023-04-06T02:26:20;101528.78;;;3.17;85.36
62708;BME280;48769;51.624;5.886;2023-04-06T02:28:45;101523.50;;;3.23;85.23
62708;BME280;48769;51.624;5.886;2023-04-06T02:31:11;101527.00;;;3.25;85.03
62708;BME280;48769;51.624;5.886;2023-04-06T02:33:36;101519.19;;;3.22;85.71
62708;BME280;48769;51.624;5.886;2023-04-06T02:36:02;101513.91;;;3.27;85.52
62708;BME280;48769;51.624;5.886;2023-04-06T02:38:28;101511.28;;;3.27;84.90
62708;BME280;48769;51.624;5.886;2023-04-06T02:40:53;101515.72;;;3.22;84.94
62708;BME280;48769;51.624;5.886;2023-04-06T02:43:19;101514.88;;;3.17;85.53
62708;BME280;48769;51.624;5.886;2023-04-06T02:45:44;101515.75;;;3.17;85.89
62708;BME280;48769;51.624;5.886;2023-04-06T02:48:10;101515.66;;;3.25;86.20
62708;BME280;48769;51.624;5.886;2023-04-06T02:50:36;101513.00;;;3.30;85.90
62708;BME280;48769;51.624;5.886;2023-04-06T02:53:01;101503.44;;;3.30;85.57
62708;BME280;48769;51.624;5.886;2023-04-06T02:55:26;101504.28;;;3.32;86.29
62708;BME280;48769;51.624;5.886;2023-04-06T02:57:52;101505.16;;;3.31;85.91
62708;BME280;48769;51.624;5.886;2023-04-06T03:00:17;101501.66;;;3.32;86.47
62708;BME280;48769;51.624;5.886;2023-04-06T03:02:43;101501.66;;;3.32;86.74
62708;BME280;48769;51.624;5.886;2023-04-06T03:05:08;101491.28;;;3.24;87.29
62708;BME280;48769;51.624;5.886;2023-04-06T03:07:34;101492.22;;;3.22;87.79
62708;BME280;48769;51.624;5.886;2023-04-06T03:09:59;101493.91;;;3.26;87.86
62708;BME280;48769;51.624;5.886;2023-04-06T03:12:24;101491.19;;;3.35;87.45
62708;BME280;48769;51.624;5.886;2023-04-06T03:14:49;101489.34;;;3.43;86.75
62708;BME280;48769;51.624;5.886;2023-04-06T03:17:15;101487.56;;;3.48;86.75
62708;BME280;48769;51.624;5.886;2023-04-06T03:19:40;101484.06;;;3.49;86.49
62708;BME280;48769;51.624;5.886;2023-04-06T03:22:06;101477.94;;;3.52;85.72
62708;BME280;48769;51.624;5.886;2023-04-06T03:24:31;101484.94;;;3.48;85.81
62708;BME280;48769;51.624;5.886;2023-04-06T03:26:56;101479.72;;;3.47;85.65
62708;BME280;48769;51.624;5.886;2023-04-06T03:29:22;101478.06;;;3.40;85.24
62708;BME280;48769;51.624;5.886;2023-04-06T03:31:47;101491.16;;;3.38;85.84
62708;BME280;48769;51.624;5.886;2023-04-06T03:34:12;101484.13;;;3.43;85.96
62708;BME280;48769;51.624;5.886;2023-04-06T03:36:38;101480.56;;;3.47;86.14
62708;BME280;48769;51.624;5.886;2023-04-06T03:39:03;101481.47;;;3.48;85.32
62708;BME280;48769;51.624;5.886;2023-04-06T03:41:29;101485.81;;;3.47;85.50
62708;BME280;48769;51.624;5.886;2023-04-06T03:43:55;101476.25;;;3.48;85.42
62708;BME280;48769;51.624;5.886;2023-04-06T03:46:20;101470.16;;;3.44;86.13
62708;BME280;48769;51.624;5.886;2023-04-06T03:48:48;101468.44;;;3.43;86.44
62708;BME280;48769;51.624;5.886;2023-04-06T03:51:13;101472.00;;;3.39;86.73
62708;BME280;48769;51.624;5.886;2023-04-06T03:53:39;101468.47;;;3.40;86.50
62708;BME280;48769;51.624;5.886;2023-04-06T03:56:05;101469.34;;;3.41;87.09
62708;BME280;48769;51.624;5.886;2023-04-06T03:58:30;101473.59;;;3.49;86.63
62708;BME280;48769;51.624;5.886;2023-04-06T04:00:56;101468.31;;;3.56;87.09
62708;BME280;48769;51.624;5.886;2023-04-06T04:03:21;101458.69;;;3.61;87.45
62708;BME280;48769;51.624;5.886;2023-04-06T04:05:49;101462.06;;;3.67;86.95
62708;BME280;48769;51.624;5.886;2023-04-06T04:08:15;101463.75;;;3.70;86.94
62708;BME280;48769;51.624;5.886;2023-04-06T04:10:40;101470.66;;;3.75;86.99
62708;BME280;48769;51.624;5.886;2023-04-06T04:13:06;101462.81;;;3.77;86.73
62708;BME280;48769;51.624;5.886;2023-04-06T04:15:31;101466.31;;;3.73;86.02
62708;BME280;48769;51.624;5.886;2023-04-06T04:17:56;101469.06;;;3.64;86.31
62708;BME280;48769;51.624;5.886;2023-04-06T04:20:22;101471.59;;;3.70;85.92
62708;BME280;48769;51.624;5.886;2023-04-06T04:22:47;101464.56;;;3.75;85.55
62708;BME280;48769;51.624;5.886;2023-04-06T04:25:13;101465.44;;;3.75;85.14
62708;BME280;48769;51.624;5.886;2023-04-06T04:27:38;101467.09;;;3.80;85.05
62708;BME280;48769;51.624;5.886;2023-04-06T04:30:04;101471.47;;;3.81;85.31
62708;BME280;48769;51.624;5.886;2023-04-06T04:32:30;101480.22;;;3.78;86.22
62708;BME280;48769;51.624;5.886;2023-04-06T04:34:55;101474.94;;;3.81;85.82
62708;BME280;48769;51.624;5.886;2023-04-06T04:37:21;101469.69;;;3.84;85.73
62708;BME280;48769;51.624;5.886;2023-04-06T04:39:46;101466.16;;;3.85;85.99
62708;BME280;48769;51.624;5.886;2023-04-06T04:42:12;101476.75;;;3.76;86.09
62708;BME280;48769;51.624;5.886;2023-04-06T04:44:37;101483.88;;;3.65;86.54
62708;BME280;48769;51.624;5.886;2023-04-06T04:47:02;101475.09;;;3.69;86.17
62708;BME280;48769;51.624;5.886;2023-04-06T04:49:28;101477.59;;;3.77;86.00
62708;BME280;48769;51.624;5.886;2023-04-06T04:51:53;101469.75;;;3.78;85.44
62708;BME280;48769;51.624;5.886;2023-04-06T04:54:19;101476.81;;;3.70;85.43
62708;BME280;48769;51.624;5.886;2023-04-06T04:56:44;101475.03;;;3.75;86.35
62708;BME280;48769;51.624;5.886;2023-04-06T04:59:10;101479.25;;;3.85;86.52
62708;BME280;48769;51.624;5.886;2023-04-06T05:01:36;101473.06;;;3.89;85.87
62708;BME280;48769;51.624;5.886;2023-04-06T05:04:01;101465.22;;;3.91;85.55
62708;BME280;48769;51.624;5.886;2023-04-06T05:06:26;101471.41;;;3.85;86.08
62708;BME280;48769;51.624;5.886;2023-04-06T05:08:52;101474.94;;;3.81;86.49
62708;BME280;48769;51.624;5.886;2023-04-06T05:11:17;101472.22;;;3.89;85.87
62708;BME280;48769;51.624;5.886;2023-04-06T05:13:43;101474.75;;;3.96;85.46
62708;BME280;48769;51.624;5.886;2023-04-06T05:16:08;101467.63;;;4.05;85.67
62708;BME280;48769;51.624;5.886;2023-04-06T05:18:33;101460.56;;;4.11;85.08
62708;BME280;48769;51.624;5.886;2023-04-06T05:20:59;101461.41;;;4.13;84.86
62708;BME280;48769;51.624;5.886;2023-04-06T05:23:24;101456.16;;;4.16;84.22
62708;BME280;48769;51.624;5.886;2023-04-06T05:25:50;101470.16;;;4.11;84.38
62708;BME280;48769;51.624;5.886;2023-04-06T05:28:16;101470.09;;;4.17;84.40
62708;BME280;48769;51.624;5.886;2023-04-06T05:30:42;101464.75;;;4.23;84.26
62708;BME280;48769;51.624;5.886;2023-04-06T05:33:08;101467.13;;;4.38;84.02
62708;BME280;48769;51.624;5.886;2023-04-06T05:35:34;101461.66;;;4.54;83.80
62708;BME280;48769;51.624;5.886;2023-04-06T05:37:59;101463.31;;;4.58;83.49
62708;BME280;48769;51.624;5.886;2023-04-06T05:40:25;101458.16;;;4.53;83.04
62708;BME280;48769;51.624;5.886;2023-04-06T05:42:51;101452.84;;;4.58;82.94
62708;BME280;48769;51.624;5.886;2023-04-06T05:45:16;101454.66;;;4.56;82.41
62708;BME280;48769;51.624;5.886;2023-04-06T05:47:43;101449.31;;;4.60;82.17
62708;BME280;48769;51.624;5.886;2023-04-06T05:50:10;101445.53;;;4.77;81.38
62708;BME280;48769;51.624;5.886;2023-04-06T05:52:36;101443.63;;;4.86;81.37
62708;BME280;48769;51.624;5.886;2023-04-06T05:55:02;101449.78;;;4.84;81.00
62708;BME280;48769;51.624;5.886;2023-04-06T05:57:28;101451.56;;;4.80;81.40
62708;BME280;48769;51.624;5.886;2023-04-06T05:59:53;101453.28;;;4.83;81.53
62708;BME280;48769;51.624;5.886;2023-04-06T06:02:20;101452.81;;;5.09;81.13
62708;BME280;48769;51.624;5.886;2023-04-06T06:04:45;101446.53;;;5.16;80.88
62708;BME280;48769;51.624;5.886;2023-04-06T06:07:11;101445.75;;;5.12;80.32
62708;BME280;48769;51.624;5.886;2023-04-06T06:09:36;101444.72;;;5.21;80.83
62708;BME280;48769;51.624;5.886;2023-04-06T06:12:02;101447.66;;;5.48;80.51
62708;BME280;48769;51.624;5.886;2023-04-06T06:14:27;101446.50;;;5.62;80.13
62708;BME280;48769;51.624;5.886;2023-04-06T06:16:55;101443.63;;;5.73;79.18
62708;BME280;48769;51.624;5.886;2023-04-06T06:19:21;101442.81;;;6.10;79.16
62708;BME280;48769;51.624;5.886;2023-04-06T06:21:46;101434.19;;;6.42;78.63
62708;BME280;48769;51.624;5.886;2023-04-06T06:24:12;101438.28;;;6.54;77.08
62708;BME280;48769;51.624;5.886;2023-04-06T06:26:37;101437.00;;;6.35;75.33
62708;BME280;48769;51.624;5.886;2023-04-06T06:29:04;101431.47;;;6.47;74.81
62708;BME280;48769;51.624;5.886;2023-04-06T06:31:30;101429.22;;;6.30;74.11
62708;BME280;48769;51.624;5.886;2023-04-06T06:33:56;101427.94;;;6.48;75.21
62708;BME280;48769;51.624;5.886;2023-04-06T06:36:21;101425.25;;;6.49;73.24
62708;BME280;48769;51.624;5.886;2023-04-06T06:38:46;101431.56;;;6.42;73.49
62708;BME280;48769;51.624;5.886;2023-04-06T06:41:12;101430.16;;;6.63;73.58
62708;BME280;48769;51.624;5.886;2023-04-06T06:43:37;101433.69;;;6.62;73.10
62708;BME280;48769;51.624;5.886;2023-04-06T06:46:03;101433.66;;;6.64;73.71
62708;BME280;48769;51.624;5.886;2023-04-06T06:48:28;101432.53;;;6.72;73.20
62708;BME280;48769;51.624;5.886;2023-04-06T06:50:54;101425.47;;;6.76;72.41
62708;BME280;48769;51.624;5.886;2023-04-06T06:53:20;101429.97;;;6.71;72.89
62708;BME280;48769;51.624;5.886;2023-04-06T06:55:45;101428.50;;;6.59;73.81
62708;BME280;48769;51.624;5.886;2023-04-06T06:58:10;101430.16;;;6.63;74.01
62708;BME280;48769;51.624;5.886;2023-04-06T07:00:36;101433.34;;;6.76;72.84
62708;BME280;48769;51.624;5.886;2023-04-06T07:03:02;101423.53;;;6.83;72.96
62708;BME280;48769;51.624;5.886;2023-04-06T07:05:27;101423.78;;;6.73;72.85
62708;BME280;48769;51.624;5.886;2023-04-06T07:07:53;101423.19;;;6.62;72.59
62708;BME280;48769;51.624;5.886;2023-04-06T07:10:18;101430.03;;;6.68;72.98
62708;BME280;48769;51.624;5.886;2023-04-06T07:12:44;101426.94;;;6.86;72.62
62708;BME280;48769;51.624;5.886;2023-04-06T07:15:09;101419.75;;;6.93;72.22
62708;BME280;48769;51.624;5.886;2023-04-06T07:17:35;101425.09;;;6.90;70.61
62708;BME280;48769;51.624;5.886;2023-04-06T07:20:01;101414.28;;;7.00;70.02
62708;BME280;48769;51.624;5.886;2023-04-06T07:22:26;101409.78;;;7.06;69.61
62708;BME280;48769;51.624;5.886;2023-04-06T07:24:51;101405.91;;;7.17;68.61
62708;BME280;48769;51.624;5.886;2023-04-06T07:27:17;101415.56;;;7.17;67.56
62708;BME280;48769;51.624;5.886;2023-04-06T07:29:43;101412.53;;;7.31;66.98
62708;BME280;48769;51.624;5.886;2023-04-06T07:32:10;101412.03;;;7.49;67.44
62708;BME280;48769;51.624;5.886;2023-04-06T07:34:35;101413.94;;;7.73;66.83
62708;BME280;48769;51.624;5.886;2023-04-06T07:37:00;101403.84;;;7.86;67.51
62708;BME280;48769;51.624;5.886;2023-04-06T07:39:26;101397.81;;;7.84;66.23
62708;BME280;48769;51.624;5.886;2023-04-06T07:41:52;101407.88;;;7.98;67.15
62708;BME280;48769;51.624;5.886;2023-04-06T07:44:17;101403.81;;;7.88;66.40
62708;BME280;48769;51.624;5.886;2023-04-06T07:46:43;101402.59;;;8.00;67.24
62708;BME280;48769;51.624;5.886;2023-04-06T07:49:08;101401.47;;;7.79;66.97
62708;BME280;48769;51.624;5.886;2023-04-06T07:51:36;101399.06;;;7.99;67.24
62708;BME280;48769;51.624;5.886;2023-04-06T07:54:02;101398.78;;;8.08;66.98
62708;BME280;48769;51.624;5.886;2023-04-06T07:56:28;101407.50;;;8.10;67.19
62708;BME280;48769;51.624;5.886;2023-04-06T07:58:53;101392.47;;;8.14;67.11
62708;BME280;48769;51.624;5.886;2023-04-06T08:01:21;101395.03;;;8.15;67.33
62708;BME280;48769;51.624;5.886;2023-04-06T08:03:46;101397.16;;;8.04;66.66
62708;BME280;48769;51.624;5.886;2023-04-06T08:06:12;101396.34;;;8.02;67.00
62708;BME280;48769;51.624;5.886;2023-04-06T08:08:37;101385.06;;;7.99;66.92
62708;BME280;48769;51.624;5.886;2023-04-06T08:11:02;101395.13;;;8.12;66.65
62708;BME280;48769;51.624;5.886;2023-04-06T08:13:28;101391.31;;;8.23;66.06
62708;BME280;48769;51.624;5.886;2023-04-06T08:15:54;101387.69;;;8.25;66.90
62708;BME280;48769;51.624;5.886;2023-04-06T08:18:19;101395.03;;;8.15;65.45
62708;BME280;48769;51.624;5.886;2023-04-06T08:20:44;101395.19;;;8.37;65.62
62708;BME280;48769;51.624;5.886;2023-04-06T08:23:19;101394.16;;;8.43;65.85
62708;BME280;48769;51.624;5.886;2023-04-06T08:25:44;101394.75;;;8.78;65.01
62708;BME280;48769;51.624;5.886;2023-04-06T08:28:10;101392.75;;;8.84;65.39
62708;BME280;48769;51.624;5.886;2023-04-06T08:30:35;101383.41;;;8.99;62.55
62708;BME280;48769;51.624;5.886;2023-04-06T08:33:01;101391.53;;;8.93;64.02
62708;BME280;48769;51.624;5.886;2023-04-06T08:35:27;101394.56;;;9.07;64.82
62708;BME280;48769;51.624;5.886;2023-04-06T08:37:52;101390.84;;;9.36;63.26
62708;BME280;48769;51.624;5.886;2023-04-06T08:40:18;101383.16;;;9.30;62.59
62708;BME280;48769;51.624;5.886;2023-04-06T08:42:50;101390.53;;;8.97;63.93
62708;BME280;48769;51.624;5.886;2023-04-06T08:45:16;101388.88;;;9.18;64.01
62708;BME280;48769;51.624;5.886;2023-04-06T08:47:42;101381.38;;;9.07;62.85
62708;BME280;48769;51.624;5.886;2023-04-06T08:50:09;101382.75;;;9.18;62.52
62708;BME280;48769;51.624;5.886;2023-04-06T08:52:36;101382.53;;;9.24;62.35
62708;BME280;48769;51.624;5.886;2023-04-06T08:55:03;101383.78;;;9.37;63.44
62708;BME280;48769;51.624;5.886;2023-04-06T08:57:28;101383.66;;;9.40;62.70
62708;BME280;48769;51.624;5.886;2023-04-06T08:59:56;101386.22;;;9.65;63.60
62708;BME280;48769;51.624;5.886;2023-04-06T09:02:21;101386.38;;;9.60;63.51
62708;BME280;48769;51.624;5.886;2023-04-06T09:04:48;101388.09;;;9.62;62.27
62708;BME280;48769;51.624;5.886;2023-04-06T09:07:15;101389.97;;;9.59;63.48
62708;BME280;48769;51.624;5.886;2023-04-06T09:09:40;101385.19;;;9.91;62.87
62708;BME280;48769;51.624;5.886;2023-04-06T09:12:25;101385.28;;;10.10;61.37
62708;BME280;48769;51.624;5.886;2023-04-06T09:14:51;101387.63;;;10.18;61.82
62708;BME280;48769;51.624;5.886;2023-04-06T09:17:24;101386.34;;;10.28;60.97
62708;BME280;48769;51.624;5.886;2023-04-06T09:19:50;101386.56;;;10.22;61.25
62708;BME280;48769;51.624;5.886;2023-04-06T09:22:15;101381.28;;;10.22;60.87
62708;BME280;48769;51.624;5.886;2023-04-06T09:24:47;101386.38;;;10.48;60.33
62708;BME280;48769;51.624;5.886;2023-04-06T09:27:14;101385.53;;;10.48;59.80
62708;BME280;48769;51.624;5.886;2023-04-06T09:29:40;101384.28;;;10.57;59.63
62708;BME280;48769;51.624;5.886;2023-04-06T09:32:06;101387.50;;;10.63;60.50
62708;BME280;48769;51.624;5.886;2023-04-06T09:34:33;101384.59;;;10.49;59.08
62708;BME280;48769;51.624;5.886;2023-04-06T09:36:59;101399.44;;;10.51;60.16
62708;BME280;48769;51.624;5.886;2023-04-06T09:39:25;101392.59;;;10.47;60.22
62708;BME280;48769;51.624;5.886;2023-04-06T09:41:52;101385.78;;;10.42;60.67
62708;BME280;48769;51.624;5.886;2023-04-06T09:44:18;101383.09;;;10.21;59.71
62708;BME280;48769;51.624;5.886;2023-04-06T09:46:46;101387.88;;;10.12;59.38
62708;BME280;48769;51.624;5.886;2023-04-06T09:49:12;101382.03;;;10.25;59.49
62708;BME280;48769;51.624;5.886;2023-04-06T09:51:42;101388.78;;;10.11;59.28
62708;BME280;48769;51.624;5.886;2023-04-06T09:54:11;101391.06;;;10.20;60.04
62708;BME280;48769;51.624;5.886;2023-04-06T09:56:58;101391.84;;;10.22;60.46
62708;BME280;48769;51.624;5.886;2023-04-06T09:59:44;101392.78;;;10.21;59.58
62708;BME280;48769;51.624;5.886;2023-04-06T10:05:09;101387.44;;;10.22;61.03
62708;BME280;48769;51.624;5.886;2023-04-06T10:07:38;101393.78;;;10.40;61.55
62708;BME280;48769;51.624;5.886;2023-04-06T10:10:04;101391.28;;;10.58;61.05
62708;BME280;48769;51.624;5.886;2023-04-06T10:12:31;101393.53;;;10.67;61.54
62708;BME280;48769;51.624;5.886;2023-04-06T10:14:56;101393.13;;;10.76;60.93
62708;BME280;48769;51.624;5.886;2023-04-06T10:17:22;101386.38;;;10.89;60.97
62708;BME280;48769;51.624;5.886;2023-04-06T10:19:59;101391.41;;;10.95;59.80
62708;BME280;48769;51.624;5.886;2023-04-06T10:22:37;101380.69;;;10.78;59.27
62708;BME280;48769;51.624;5.886;2023-04-06T10:25:04;101392.03;;;11.00;60.92
62708;BME280;48769;51.624;5.886;2023-04-06T10:27:30;101392.94;;;11.20;60.33
62708;BME280;48769;51.624;5.886;2023-04-06T10:30:01;101390.16;;;11.61;59.66
62708;BME280;48769;51.624;5.886;2023-04-06T10:32:37;101386.00;;;11.36;59.17
62708;BME280;48769;51.624;5.886;2023-04-06T10:35:10;101388.72;;;11.91;60.64
62708;BME280;48769;51.624;5.886;2023-04-06T10:37:51;101399.16;;;11.57;59.88
62708;BME280;48769;51.624;5.886;2023-04-06T10:40:24;101390.75;;;11.67;59.44
62708;BME280;48769;51.624;5.886;2023-04-06T10:42:54;101395.59;;;11.58;59.68
62708;BME280;48769;51.624;5.886;2023-04-06T10:45:26;101388.28;;;11.63;58.41
62708;BME280;48769;51.624;5.886;2023-04-06T10:47:56;101391.66;;;11.85;59.00
62708;BME280;48769;51.624;5.886;2023-04-06T10:50:22;101390.75;;;11.86;59.01
62708;BME280;48769;51.624;5.886;2023-04-06T10:52:59;101379.47;;;11.81;59.13
62708;BME280;48769;51.624;5.886;2023-04-06T10:55:26;101381.34;;;11.79;60.16
62708;BME280;48769;51.624;5.886;2023-04-06T10:57:53;101384.03;;;11.60;59.98
62708;BME280;48769;51.624;5.886;2023-04-06T11:00:18;101395.47;;;11.61;60.73
62708;BME280;48769;51.624;5.886;2023-04-06T11:02:44;101384.59;;;11.48;62.37
62708;BME280;48769;51.624;5.886;2023-04-06T11:05:11;101391.06;;;11.60;64.89
62708;BME280;48769;51.624;5.886;2023-04-06T11:07:37;101401.31;;;11.67;66.26
62708;BME280;48769;51.624;5.886;2023-04-06T11:10:02;101397.81;;;11.48;66.62
62708;BME280;48769;51.624;5.886;2023-04-06T11:12:28;101399.88;;;11.41;68.90
62708;BME280;48769;51.624;5.886;2023-04-06T11:15:00;101401.47;;;11.45;69.75
62708;BME280;48769;51.624;5.886;2023-04-06T11:17:33;101405.78;;;11.28;68.84
62708;BME280;48769;51.624;5.886;2023-04-06T11:19:59;101404.78;;;11.30;68.31
62708;BME280;48769;51.624;5.886;2023-04-06T11:22:25;101420.94;;;11.24;70.34
62708;BME280;48769;51.624;5.886;2023-04-06T11:24:51;101401.13;;;11.14;69.87
62708;BME280;48769;51.624;5.886;2023-04-06T11:27:18;101410.09;;;11.30;70.38
62708;BME280;48769;51.624;5.886;2023-04-06T11:29:44;101404.44;;;11.19;71.29
62708;BME280;48769;51.624;5.886;2023-04-06T11:32:20;101412.25;;;11.02;71.35
62708;BME280;48769;51.624;5.886;2023-04-06T11:34:47;101412.25;;;11.02;72.44
62708;BME280;48769;51.624;5.886;2023-04-06T11:37:13;101416.09;;;10.94;72.93
62708;BME280;48769;51.624;5.886;2023-04-06T11:39:44;101412.81;;;10.89;73.29
62708;BME280;48769;51.624;5.886;2023-04-06T11:42:11;101410.63;;;10.79;73.61
62708;BME280;48769;51.624;5.886;2023-04-06T11:44:42;101405.91;;;10.44;74.55
62708;BME280;48769;51.624;5.886;2023-04-06T11:47:09;101413.34;;;10.57;75.72
62708;BME280;48769;51.624;5.886;2023-04-06T11:49:40;101410.16;;;10.48;77.42
62708;BME280;48769;51.624;5.886;2023-04-06T11:54:41;101403.06;;;10.28;78.70
62708;BME280;48769;51.624;5.886;2023-04-06T11:57:08;101407.34;;;10.31;78.52
62708;BME280;48769;51.624;5.886;2023-04-06T11:59:34;101402.97;;;10.30;79.52
62708;BME280;48769;51.624;5.886;2023-04-06T12:02:01;101405.31;;;10.16;79.97
62708;BME280;48769;51.624;5.886;2023-04-06T12:04:26;101409.22;;;9.83;81.62
62708;BME280;48769;51.624;5.886;2023-04-06T12:06:52;101410.81;;;9.66;83.47
62708;BME280;48769;51.624;5.886;2023-04-06T12:09:17;101415.59;;;9.56;87.30
62708;BME280;48769;51.624;5.886;2023-04-06T12:11:43;101417.41;;;9.54;87.90
62708;BME280;48769;51.624;5.886;2023-04-06T12:14:08;101414.28;;;9.44;91.11
62708;BME280;48769;51.624;5.886;2023-04-06T12:16:34;101413.28;;;9.70;91.09
62708;BME280;48769;51.624;5.886;2023-04-06T12:19:00;101421.09;;;9.50;91.29
62708;BME280;48769;51.624;5.886;2023-04-06T12:21:30;101420.69;;;9.37;93.20
62708;BME280;48769;51.624;5.886;2023-04-06T12:23:59;101412.41;;;9.23;93.16
62708;BME280;48769;51.624;5.886;2023-04-06T12:26:25;101417.47;;;9.29;96.67
62708;BME280;48769;51.624;5.886;2023-04-06T12:28:54;101412.91;;;9.34;96.95
62708;BME280;48769;51.624;5.886;2023-04-06T12:31:21;101411.16;;;9.09;100.00
62708;BME280;48769;51.624;5.886;2023-04-06T12:33:50;101406.59;;;9.15;100.00
62708;BME280;48769;51.624;5.886;2023-04-06T12:36:16;101400.50;;;9.12;100.00
62708;BME280;48769;51.624;5.886;2023-04-06T12:38:49;101400.50;;;9.12;100.00
62708;BME280;48769;51.624;5.886;2023-04-06T12:41:16;101401.19;;;9.18;100.00
62708;BME280;48769;51.624;5.886;2023-04-06T12:43:42;101404.16;;;9.08;100.00
62708;BME280;48769;51.624;5.886;2023-04-06T12:46:08;101405.19;;;9.04;100.00
62708;BME280;48769;51.624;5.886;2023-04-06T12:48:34;101397.63;;;9.19;100.00
62708;BME280;48769;51.624;5.886;2023-04-06T12:51:02;101389.63;;;9.22;100.00
62708;BME280;48769;51.624;5.886;2023-04-06T12:53:28;101396.97;;;9.13;100.00
62708;BME280;48769;51.624;5.886;2023-04-06T12:55:54;101392.91;;;9.03;100.00
62708;BME280;48769;51.624;5.886;2023-04-06T12:58:21;101391.59;;;9.17;100.00